createdAt,value
2023-02-22T00:00:04.424Z,20.1
2023-02-22T00:01:06.698Z,21.7
2023-02-22T00:03:08.218Z,20.2
2023-02-22T00:05:09.420Z,20.3
2023-02-22T00:09:15.395Z,18.8
2023-02-22T00:11:17.080Z,18.1
2023-02-22T00:15:19.436Z,20.4
2023-02-22T00:17:20.854Z,19.3
2023-02-22T00:19:22.161Z,20.1
2023-02-22T00:21:23.496Z,19.8
2023-02-22T00:23:28.142Z,19
2023-02-22T00:25:29.497Z,19.3
2023-02-22T00:27:30.849Z,17.8
2023-02-22T00:31:33.571Z,16.7
2023-02-22T00:33:34.888Z,19.4
2023-02-22T00:39:43.749Z,17.7
2023-02-22T00:43:46.480Z,16.4
2023-02-22T00:45:47.853Z,18.2
2023-02-22T00:47:49.137Z,18.5
2023-02-22T00:51:55.159Z,22.7
2023-02-22T00:53:56.480Z,23.1
2023-02-22T00:55:57.834Z,20.3
2023-02-22T00:57:00.190Z,20.7
2023-02-22T00:59:01.518Z,22.9
2023-02-22T01:01:02.855Z,16.4
2023-02-22T01:03:04.222Z,22.1
2023-02-22T01:05:08.874Z,24.5
2023-02-22T01:07:10.224Z,29.2
2023-02-22T01:11:12.912Z,33.3
2023-02-22T01:13:14.279Z,29.2
2023-02-22T01:15:15.636Z,25.1
2023-02-22T01:17:17.150Z,20.9
2023-02-22T01:21:23.005Z,50.5
2023-02-22T01:23:24.347Z,35.9
2023-02-22T01:25:25.702Z,47.3
2023-02-22T01:27:27.061Z,41.2
2023-02-22T01:35:35.769Z,26.6
2023-02-22T01:47:47.201Z,40.4
2023-02-22T01:49:48.541Z,35.6
2023-02-22T01:51:49.922Z,38
2023-02-22T01:58:15.587Z,29
2023-02-22T02:00:20.241Z,25.4
2023-02-22T02:02:21.560Z,20.1
2023-02-22T02:04:22.901Z,19.2
2023-02-22T02:06:24.263Z,23.8
2023-02-22T02:08:25.647Z,7.3
2023-02-22T02:10:26.965Z,23.5
2023-02-22T02:12:28.320Z,22
2023-02-22T02:14:32.985Z,24.7
2023-02-22T02:16:34.385Z,18.9
2023-02-22T02:18:35.664Z,13.2
2023-02-22T02:20:36.999Z,20.7
2023-02-22T02:26:41.062Z,19.4
2023-02-22T02:28:45.708Z,15.5
2023-02-22T02:30:47.033Z,22
2023-02-22T02:32:48.375Z,18.7
2023-02-22T02:34:49.740Z,15.7
2023-02-22T02:36:51.067Z,21.6
2023-02-22T02:38:52.449Z,17.5
2023-02-22T02:40:53.777Z,21.8
2023-02-22T02:42:58.422Z,16
2023-02-22T02:44:59.736Z,21.7
2023-02-22T02:47:01.123Z,18.9
2023-02-22T02:48:03.423Z,25
2023-02-22T02:50:04.746Z,20
2023-02-22T02:52:06.080Z,14.9
2023-02-22T02:54:07.445Z,11.2
2023-02-22T02:56:12.050Z,17
2023-02-22T02:58:13.425Z,20.6
2023-02-22T03:00:14.779Z,17.4
2023-02-22T03:02:16.105Z,9.1
2023-02-22T03:04:17.421Z,9.6
2023-02-22T03:06:18.774Z,9.2
2023-02-22T03:08:20.112Z,17.6
2023-02-22T03:10:24.927Z,18.3
2023-02-22T03:12:26.090Z,19.7
2023-02-22T03:14:27.446Z,11.9
2023-02-22T03:16:28.828Z,17
2023-02-22T03:18:30.115Z,19.3
2023-02-22T03:26:38.825Z,15.4
2023-02-22T03:28:40.152Z,19.6
2023-02-22T03:30:41.516Z,14.2
2023-02-22T03:32:42.827Z,12.8
2023-02-22T03:34:44.177Z,14.7
2023-02-22T03:36:45.536Z,22.7
2023-02-22T03:38:50.152Z,18.4
2023-02-22T03:40:51.486Z,16.6
2023-02-22T03:42:52.859Z,16.5
2023-02-22T03:45:56.498Z,18
2023-02-22T03:56:06.493Z,17.5
2023-02-22T03:58:07.844Z,19.5
2023-02-22T04:00:09.172Z,19.6
2023-02-22T04:04:11.828Z,19.3
2023-02-22T04:06:16.486Z,21.8
2023-02-22T04:08:17.799Z,24.8
2023-02-22T04:10:19.110Z,15.4
2023-02-22T04:12:20.473Z,19.1
2023-02-22T04:14:23.222Z,19.3
2023-02-22T04:16:23.117Z,17.4
2023-02-22T04:18:24.449Z,19.5
2023-02-22T04:20:29.102Z,20.5
2023-02-22T04:22:30.408Z,19.5
2023-02-22T04:24:31.750Z,19.5
2023-02-22T04:28:34.404Z,19.1
2023-02-22T04:30:35.819Z,16.4
2023-02-22T04:32:37.064Z,18.4
2023-02-22T04:36:43.033Z,24
2023-02-22T04:38:44.384Z,20.2
2023-02-22T04:39:46.714Z,20.3
2023-02-22T04:43:49.335Z,17.9
2023-02-22T04:45:50.690Z,21.1
2023-02-22T04:47:55.367Z,18.8
2023-02-22T04:49:56.714Z,18.6
2023-02-22T04:51:58.036Z,16.6
2023-02-22T04:53:59.334Z,17.2
2023-02-22T04:56:00.673Z,17
2023-02-22T04:58:02.019Z,19.3
2023-02-22T05:00:03.337Z,17.2
2023-02-22T05:02:07.976Z,19.7
2023-02-22T05:04:09.318Z,23.7
2023-02-22T05:06:10.608Z,28
2023-02-22T05:16:20.668Z,26.5
2023-02-22T05:24:25.927Z,26.1
2023-02-22T05:26:27.223Z,23.1
2023-02-22T05:28:28.576Z,20.9
2023-02-22T05:30:33.299Z,23
2023-02-22T05:32:35.062Z,27
2023-02-22T05:34:36.393Z,23.5
2023-02-22T05:36:59.728Z,23.5
2023-02-22T05:39:01.149Z,29
2023-02-22T05:41:02.464Z,21.8
2023-02-22T05:43:07.086Z,22.5
2023-02-22T05:45:08.403Z,26.4
2023-02-22T05:47:09.730Z,24.7
2023-02-22T05:49:11.051Z,25.8
2023-02-22T05:51:12.397Z,29.9
2023-02-22T05:53:13.686Z,20.2
2023-02-22T05:55:15.006Z,17.6
2023-02-22T05:57:19.622Z,26.5
2023-02-22T05:59:20.945Z,26.3
2023-02-22T06:01:22.292Z,29.4
2023-02-22T06:03:23.593Z,29.8
2023-02-22T06:05:24.927Z,23.6
2023-02-22T06:07:26.224Z,25
2023-02-22T06:09:27.548Z,23.6
2023-02-22T06:17:36.131Z,40.8
2023-02-22T06:19:37.451Z,33.5
2023-02-22T06:21:38.763Z,31.6
2023-02-22T06:27:47.581Z,20.6
2023-02-22T06:29:48.892Z,33.9
2023-02-22T06:30:51.173Z,29.9
2023-02-22T06:32:52.497Z,29
2023-02-22T06:38:59.756Z,17.9
2023-02-22T06:41:01.115Z,31
2023-02-22T06:43:02.453Z,32.6
2023-02-22T06:45:03.719Z,29.2
2023-02-22T06:47:05.051Z,33.6
2023-02-22T06:49:06.391Z,35.3
2023-02-22T06:51:07.734Z,34.2
2023-02-22T06:53:12.339Z,33.5
2023-02-22T07:01:17.935Z,37.3
2023-02-22T07:03:18.960Z,31.8
2023-02-22T07:05:20.273Z,34
2023-02-22T07:11:27.528Z,33
2023-02-22T07:17:31.468Z,32
2023-02-22T07:19:32.811Z,36.5
2023-02-22T07:21:37.406Z,31.6
2023-02-22T07:23:38.749Z,29.1
2023-02-22T07:25:40.052Z,41.4
2023-02-22T07:28:43.658Z,40.7
2023-02-22T07:30:45.048Z,42.6
2023-02-22T07:32:46.383Z,41.8
2023-02-22T07:34:50.922Z,46.4
2023-02-22T07:36:52.290Z,45.1
2023-02-22T07:38:53.665Z,42.5
2023-02-22T07:44:57.592Z,48.8
2023-02-22T07:46:58.926Z,43.5
2023-02-22T07:55:07.532Z,31.3
2023-02-22T07:57:08.859Z,45.6
2023-02-22T08:01:11.531Z,48.1
2023-02-22T08:05:17.479Z,26.4
2023-02-22T08:07:18.843Z,36.1
2023-02-22T08:17:28.759Z,38.8
2023-02-22T08:19:30.088Z,34.8
2023-02-22T08:21:31.395Z,32
2023-02-22T08:24:35.022Z,30.9
2023-02-22T08:26:36.362Z,26.9
2023-02-22T08:28:37.852Z,32.2
2023-02-22T08:30:42.513Z,32.7
2023-02-22T08:32:43.872Z,37.9
2023-02-22T08:34:45.101Z,24.3
2023-02-22T08:36:46.411Z,28.5
2023-02-22T08:38:47.752Z,35.3
2023-02-22T08:40:49.073Z,28.1
2023-02-22T08:42:50.409Z,33.7
2023-02-22T08:44:55.044Z,33.6
2023-02-22T08:46:56.368Z,36.6
2023-02-22T08:48:57.713Z,32.3
2023-02-22T08:50:59.037Z,19.9
2023-02-22T08:53:00.391Z,25.2
2023-02-22T08:55:01.701Z,22.6
2023-02-22T08:57:03.058Z,28
2023-02-22T08:59:07.676Z,28.8
2023-02-22T09:01:09.002Z,32.4
2023-02-22T09:03:10.352Z,28.9
2023-02-22T09:05:11.684Z,25.4
2023-02-22T09:07:13.016Z,32.3
2023-02-22T09:09:14.352Z,15.3
2023-02-22T09:11:16.004Z,26.8
2023-02-22T09:13:20.384Z,21.3
2023-02-22T09:15:21.686Z,15.3
2023-02-22T09:17:23.023Z,23.5
2023-02-22T09:21:47.165Z,25.8
2023-02-22T09:23:48.519Z,22.8
2023-02-22T09:25:53.135Z,27.9
2023-02-22T09:27:54.484Z,21.6
2023-02-22T09:31:57.369Z,23.2
2023-02-22T09:33:58.568Z,19.2
2023-02-22T09:35:59.893Z,15
2023-02-22T09:38:01.259Z,22.6
2023-02-22T09:40:05.977Z,20.7
2023-02-22T09:42:07.256Z,19.8
2023-02-22T09:44:08.588Z,20.8
2023-02-22T09:46:10.825Z,24.6
2023-02-22T09:48:21.662Z,28.6
2023-02-22T09:52:14.823Z,22.2
2023-02-22T09:54:19.509Z,22.6
2023-02-22T09:56:21.097Z,28.7
2023-02-22T09:58:22.194Z,26.8
2023-02-22T10:00:23.544Z,28.5
2023-02-22T10:04:26.259Z,22.3
2023-02-22T10:06:27.604Z,19.5
2023-02-22T10:08:32.264Z,24.8
2023-02-22T10:13:37.162Z,25.3
2023-02-22T10:15:38.513Z,26.4
2023-02-22T10:17:39.844Z,25.4
2023-02-22T10:19:41.232Z,23.3
2023-02-22T10:21:45.852Z,21.4
2023-02-22T10:25:48.563Z,23.6
2023-02-22T10:27:49.936Z,25.1
2023-02-22T10:29:51.311Z,25
2023-02-22T10:33:54.001Z,29.2
2023-02-22T10:35:58.641Z,23.8
2023-02-22T10:38:00.033Z,22.5
2023-02-22T10:40:01.402Z,24.3
2023-02-22T10:42:02.748Z,22.6
2023-02-22T10:50:11.461Z,19.5
2023-02-22T10:52:12.831Z,17.4
2023-02-22T10:54:14.224Z,17.1
2023-02-22T10:56:16.000Z,18.9
2023-02-22T10:58:17.154Z,18.8
2023-02-22T11:00:18.296Z,19.9
2023-02-22T11:02:19.685Z,16.9
2023-02-22T11:04:24.324Z,20.4
2023-02-22T11:06:25.689Z,20.6
2023-02-22T11:09:29.370Z,18
2023-02-22T11:11:30.738Z,20.8
2023-02-22T11:13:32.058Z,18.8
2023-02-22T11:17:38.100Z,20.9
2023-02-22T11:19:39.475Z,19.1
2023-02-22T11:21:40.837Z,22
2023-02-22T11:23:44.579Z,20.8
2023-02-22T11:25:43.567Z,17
2023-02-22T11:27:44.911Z,16.9
2023-02-22T11:29:46.264Z,18.3
2023-02-22T11:31:51.013Z,20.5
2023-02-22T11:33:52.306Z,19.2
2023-02-22T11:35:53.689Z,20.1
2023-02-22T11:37:55.069Z,22.3
2023-02-22T11:39:56.429Z,20.7
2023-02-22T11:41:57.779Z,18.9
2023-02-22T11:43:59.148Z,18.6
2023-02-22T11:46:03.950Z,18.6
2023-02-22T11:48:05.232Z,21
2023-02-22T11:50:06.609Z,19
2023-02-22T11:52:07.924Z,18.2
2023-02-22T11:54:09.289Z,16.9
2023-02-22T11:56:10.673Z,23.1
2023-02-22T11:58:13.586Z,21.1
2023-02-22T12:00:16.893Z,19
2023-02-22T12:02:18.095Z,19.8
2023-02-22T12:04:19.485Z,18.4
2023-02-22T12:05:21.830Z,19.9
2023-02-22T12:07:23.142Z,18.7
2023-02-22T12:09:24.549Z,21.1
2023-02-22T12:11:25.878Z,11.4
2023-02-22T12:13:30.594Z,11
2023-02-22T12:15:32.056Z,12.6
2023-02-22T12:17:34.906Z,9.5
2023-02-22T12:19:36.272Z,9.9
2023-02-22T12:21:37.592Z,10.9
2023-02-22T12:23:38.966Z,11.6
2023-02-22T12:25:40.357Z,13
2023-02-22T12:27:45.050Z,13.7
2023-02-22T12:29:46.374Z,12.1
2023-02-22T12:31:47.859Z,12
2023-02-22T12:33:49.131Z,10.8
2023-02-22T12:35:50.459Z,9
2023-02-22T12:37:51.841Z,10.1
2023-02-22T12:39:54.053Z,10.6
2023-02-22T12:41:57.916Z,9.4
2023-02-22T12:43:59.268Z,11.2
2023-02-22T12:50:03.381Z,12.3
2023-02-22T12:52:20.543Z,11.7
2023-02-22T12:54:06.983Z,10.8
2023-02-22T12:56:11.660Z,13.4
2023-02-22T12:58:13.003Z,13.2
2023-02-22T13:00:14.421Z,12.9
2023-02-22T13:02:30.923Z,13.1
2023-02-22T13:04:32.259Z,15.2
2023-02-22T13:06:33.656Z,11.7
2023-02-22T13:08:38.309Z,12.5
2023-02-22T13:10:39.679Z,11.5
2023-02-22T13:18:45.184Z,10.5
2023-02-22T13:20:46.572Z,11.1
2023-02-22T13:22:51.284Z,11.3
2023-02-22T13:28:55.367Z,9.9
2023-02-22T13:30:56.761Z,11.1
2023-02-22T13:32:58.079Z,10.2
2023-02-22T13:34:59.422Z,11.5
2023-02-22T13:37:04.139Z,12.7
2023-02-22T13:39:05.497Z,11.7
2023-02-22T13:41:06.833Z,14
2023-02-22T13:43:08.203Z,10.1
2023-02-22T13:47:10.984Z,12
2023-02-22T13:51:17.006Z,12.8
2023-02-22T13:53:18.363Z,12.5
2023-02-22T13:55:19.777Z,14.8
2023-02-22T13:56:22.110Z,13
2023-02-22T13:58:23.532Z,12.7
2023-02-22T14:00:24.901Z,14.3
2023-02-22T14:02:26.233Z,12.4
2023-02-22T14:04:30.882Z,14.5
2023-02-22T14:06:32.293Z,12.6
2023-02-22T14:08:33.655Z,12.2
2023-02-22T14:12:36.454Z,17.4
2023-02-22T14:20:45.219Z,13.9
2023-02-22T14:22:48.095Z,14.8
2023-02-22T14:24:47.986Z,13.8
2023-02-22T14:26:49.325Z,11.8
2023-02-22T14:28:50.707Z,14
2023-02-22T14:30:52.066Z,15.2
2023-02-22T14:32:56.786Z,15.2
2023-02-22T14:34:58.140Z,14.9
2023-02-22T14:36:59.470Z,12.2
2023-02-22T14:39:00.842Z,15.3
2023-02-22T14:41:02.256Z,17.4
2023-02-22T14:43:03.589Z,13.6
2023-02-22T14:45:04.932Z,15.8
2023-02-22T14:47:09.590Z,13.2
2023-02-22T14:49:10.961Z,16.2
2023-02-22T14:51:21.497Z,15.9
2023-02-22T14:54:16.078Z,13.6
2023-02-22T14:56:17.442Z,12.8
2023-02-22T14:58:18.851Z,15.4
2023-02-22T15:00:23.483Z,15.3
2023-02-22T15:04:26.302Z,13.8
2023-02-22T15:06:27.589Z,13.3
2023-02-22T15:08:28.958Z,14.5
2023-02-22T15:10:30.324Z,15.6
2023-02-22T15:14:36.367Z,16
2023-02-22T15:16:37.761Z,17.6
2023-02-22T15:18:39.058Z,14.5
2023-02-22T15:20:40.473Z,14.2
2023-02-22T15:22:41.808Z,14.7
2023-02-22T15:26:59.021Z,15.7
2023-02-22T15:28:49.205Z,15.9
2023-02-22T15:30:50.587Z,16.4
2023-02-22T15:33:03.796Z,14.4
2023-02-22T15:34:53.314Z,16
2023-02-22T15:36:54.665Z,14.7
2023-02-22T15:38:56.034Z,14.9
2023-02-22T15:40:57.424Z,15.8
2023-02-22T15:43:02.077Z,15.6
2023-02-22T15:45:03.439Z,14.3
2023-02-22T15:47:04.800Z,15.4
2023-02-22T15:48:07.125Z,19.7
2023-02-22T15:50:08.496Z,18.5
2023-02-22T15:52:09.862Z,16.8
2023-02-22T15:54:21.555Z,17.6
2023-02-22T15:56:15.889Z,16.1
2023-02-22T15:58:17.275Z,14.1
2023-02-22T16:00:18.642Z,16.4
2023-02-22T16:04:21.394Z,16
2023-02-22T16:06:22.715Z,15.6
2023-02-22T16:10:28.752Z,16.6
2023-02-22T16:14:31.520Z,15.1
2023-02-22T16:16:32.916Z,15.8
2023-02-22T16:22:36.977Z,15.6
2023-02-22T16:24:41.663Z,20.4
2023-02-22T16:26:43.048Z,16.4
2023-02-22T16:28:44.414Z,15.2
2023-02-22T16:30:45.838Z,16.9
2023-02-22T16:32:47.134Z,15.4
2023-02-22T16:34:48.554Z,17.3
2023-02-22T16:36:49.858Z,14.5
2023-02-22T16:38:54.558Z,17.2
2023-02-22T16:42:57.254Z,16.6
2023-02-22T16:45:24.132Z,18.6
2023-02-22T16:47:25.498Z,16.5
2023-02-22T16:49:26.873Z,17.5
2023-02-22T16:51:31.524Z,18.3
2023-02-22T16:53:32.891Z,16.3
2023-02-22T16:55:34.245Z,15
2023-02-22T16:57:35.582Z,16.6
2023-02-22T16:59:36.929Z,16.2
2023-02-22T17:03:39.723Z,17.8
2023-02-22T17:05:44.406Z,18
2023-02-22T17:09:47.056Z,16.8
2023-02-22T17:11:48.407Z,18.6
2023-02-22T17:13:49.803Z,13.5
2023-02-22T17:15:51.200Z,16.3
2023-02-22T17:17:52.550Z,16.1
2023-02-22T17:19:57.193Z,16.9
2023-02-22T17:21:58.573Z,18.7
2023-02-22T17:23:59.975Z,21
2023-02-22T17:26:01.280Z,17.4
2023-02-22T17:28:02.632Z,16.1
2023-02-22T17:30:04.033Z,17.8
2023-02-22T17:32:05.384Z,21.1
2023-02-22T17:34:10.011Z,18.5
2023-02-22T17:36:11.392Z,19.4
2023-02-22T17:38:12.714Z,19.2
2023-02-22T17:41:16.399Z,17.8
2023-02-22T17:51:26.513Z,20.2
2023-02-22T17:53:27.860Z,15.6
2023-02-22T17:55:29.268Z,18.8
2023-02-22T18:01:36.594Z,20.9
2023-02-22T18:03:37.941Z,21.7
2023-02-22T18:07:42.267Z,20.6
2023-02-22T18:15:51.000Z,18.6
2023-02-22T18:17:52.300Z,17.5
2023-02-22T18:19:53.650Z,16.6
2023-02-22T18:21:55.003Z,16
2023-02-22T18:23:56.378Z,17.9
2023-02-22T18:26:09.539Z,17
2023-02-22T18:27:59.116Z,18.1
2023-02-22T18:30:03.780Z,18.2
2023-02-22T18:32:05.171Z,21.2
2023-02-22T18:34:06.514Z,21.3
2023-02-22T18:35:08.833Z,20.7
2023-02-22T18:37:10.192Z,20.2
2023-02-22T18:39:11.550Z,15.4
2023-02-22T18:41:12.893Z,19
2023-02-22T18:43:17.576Z,20.5
2023-02-22T18:45:18.949Z,21.8
2023-02-22T18:53:24.411Z,21.5
2023-02-22T18:55:25.773Z,21.3
2023-02-22T18:57:30.448Z,22.7
2023-02-22T18:59:31.822Z,18.1
2023-02-22T19:07:37.324Z,27.1
2023-02-22T19:09:38.647Z,21.2
2023-02-22T19:11:43.335Z,25.2
2023-02-22T19:13:44.699Z,29.3
2023-02-22T19:15:46.075Z,26.2
2023-02-22T19:17:47.441Z,26.1
2023-02-22T19:19:48.811Z,28.2
2023-02-22T19:21:50.155Z,28.2
2023-02-22T19:23:51.544Z,27.9
2023-02-22T19:25:56.198Z,25
2023-02-22T19:27:57.564Z,30.7
2023-02-22T19:29:58.975Z,25.5
2023-02-22T19:31:01.294Z,26.8
2023-02-22T19:33:02.630Z,28
2023-02-22T19:39:09.975Z,30.3
2023-02-22T19:43:12.704Z,29.2
2023-02-22T19:49:16.787Z,30.2
2023-02-22T19:51:18.369Z,35.3
2023-02-22T19:55:24.141Z,29.7
2023-02-22T19:57:25.542Z,31.7
2023-02-22T19:59:26.882Z,33.4
2023-02-22T20:01:28.248Z,35.7
2023-02-22T20:03:29.641Z,34
2023-02-22T20:05:30.963Z,37.1
2023-02-22T20:09:36.967Z,35.7
2023-02-22T20:11:38.352Z,34
2023-02-22T20:13:39.716Z,35.7
2023-02-22T20:15:41.050Z,35.3
2023-02-22T20:17:42.404Z,34.7
2023-02-22T20:19:43.792Z,33.8
2023-02-22T20:21:48.435Z,36.6
2023-02-22T20:23:49.803Z,34.3
2023-02-22T20:25:51.151Z,34.6
2023-02-22T20:28:17.917Z,36.3
2023-02-22T20:30:19.287Z,37.5
2023-02-22T20:32:20.842Z,34.1
2023-02-22T20:34:26.120Z,35
2023-02-22T20:36:26.652Z,32
2023-02-22T20:38:27.981Z,30.7
2023-02-22T20:40:29.356Z,32.9
2023-02-22T20:42:30.713Z,38.3
2023-02-22T20:44:32.089Z,37.7
2023-02-22T20:46:33.486Z,39
2023-02-22T20:48:38.086Z,32
2023-02-22T20:50:39.474Z,39.2
2023-02-22T21:08:55.009Z,39
2023-02-22T21:12:58.866Z,31.7
2023-02-22T21:14:59.078Z,37.7
2023-02-22T21:17:03.819Z,34.4
2023-02-22T21:19:05.110Z,38.4
2023-02-22T21:21:06.453Z,38.2
2023-02-22T21:22:08.882Z,42
2023-02-22T21:26:11.522Z,40.4
2023-02-22T21:28:12.871Z,39.6
2023-02-22T21:30:17.543Z,39.9
2023-02-22T21:36:21.646Z,34.1
2023-02-22T21:38:22.977Z,41.4
2023-02-22T21:40:24.341Z,40.4
2023-02-22T21:42:25.716Z,41.3
2023-02-22T21:44:30.413Z,42.8
2023-02-22T21:46:31.710Z,44.2
2023-02-22T21:48:33.111Z,38
2023-02-22T21:50:34.427Z,38.9
2023-02-22T21:52:35.804Z,40.7
2023-02-22T21:54:37.166Z,38.5
2023-02-22T21:56:38.520Z,38.2
2023-02-22T21:58:43.180Z,49.1
2023-02-22T22:00:44.529Z,38.4
2023-02-22T22:02:45.919Z,37.9
2023-02-22T22:04:47.251Z,37.9
2023-02-22T22:06:48.587Z,39.2
2023-02-22T22:08:49.935Z,35.2
2023-02-22T22:10:51.315Z,32
2023-02-22T22:12:55.980Z,38.1
2023-02-22T22:14:57.346Z,39.1
2023-02-22T22:16:58.773Z,37.5
2023-02-22T22:18:01.005Z,41.5
2023-02-22T22:20:02.372Z,38.3
2023-02-22T22:22:03.725Z,41.1
2023-02-22T22:24:05.088Z,38
2023-02-22T22:26:09.820Z,40.8
2023-02-22T22:28:11.080Z,37.2
2023-02-22T22:30:12.422Z,35.7
2023-02-22T22:32:13.982Z,36.4
2023-02-22T22:34:15.148Z,39.1
2023-02-22T22:38:17.839Z,40.2
2023-02-22T22:48:27.927Z,37.2
2023-02-22T22:50:29.283Z,38.5
2023-02-22T22:52:30.698Z,38.1
2023-02-22T22:54:35.291Z,39.1
2023-02-22T22:56:36.618Z,41.1
2023-02-22T23:00:39.337Z,41.1
2023-02-22T23:08:48.052Z,42.2
2023-02-22T23:10:49.419Z,43
2023-02-22T23:12:50.767Z,41.8
2023-02-22T23:13:53.088Z,42
2023-02-22T23:15:54.443Z,41.8
2023-02-22T23:17:55.760Z,48.8
2023-02-22T23:19:57.148Z,38.6
2023-02-22T23:22:01.811Z,45.5
2023-02-22T23:24:03.181Z,38.2
2023-02-22T23:26:04.561Z,40
2023-02-22T23:28:05.862Z,42.6
2023-02-22T23:30:07.219Z,40.5
2023-02-22T23:32:08.747Z,38
2023-02-22T23:34:09.962Z,40.7
2023-02-22T23:36:14.586Z,45
2023-02-22T23:38:15.945Z,38.1
2023-02-22T23:40:17.276Z,41.5
2023-02-22T23:42:18.674Z,37.5
2023-02-22T23:44:19.989Z,40
2023-02-22T23:46:21.410Z,40
2023-02-22T23:48:22.709Z,41
2023-02-22T23:50:27.375Z,41.2
2023-02-22T23:52:28.717Z,47.2
2023-02-22T23:54:30.064Z,40
